sensor_id;sensor_type;location;lat;lon;timestamp;P1;durP1;ratioP1;P2;durP2;ratioP2
65853;SDS011;52627;48.838;2.402;2022-08-01T00:00:45;3.80;;;1.30;;
65853;SDS011;52627;48.838;2.402;2022-08-01T00:03:11;2.70;;;1.30;;
65853;SDS011;52627;48.838;2.402;2022-08-01T00:05:38;3.70;;;1.30;;
65853;SDS011;52627;48.838;2.402;2022-08-01T00:08:05;3.90;;;1.10;;
65853;SDS011;52627;48.838;2.402;2022-08-01T00:10:32;2.30;;;1.30;;
65853;SDS011;52627;48.838;2.402;2022-08-01T00:13:02;3.10;;;1.30;;
65853;SDS011;52627;48.838;2.402;2022-08-01T00:15:29;3.20;;;1.40;;
65853;SDS011;52627;48.838;2.402;2022-08-01T00:17:56;2.70;;;1.20;;
65853;SDS011;52627;48.838;2.402;2022-08-01T00:20:23;2.40;;;1.10;;
65853;SDS011;52627;48.838;2.402;2022-08-01T00:22:49;2.80;;;1.30;;
65853;SDS011;52627;48.838;2.402;2022-08-01T00:25:16;3.30;;;1.40;;
65853;SDS011;52627;48.838;2.402;2022-08-01T00:27:43;3.40;;;1.20;;
65853;SDS011;52627;48.838;2.402;2022-08-01T00:30:10;2.40;;;1.10;;
65853;SDS011;52627;48.838;2.402;2022-08-01T00:32:42;3.20;;;1.30;;
65853;SDS011;52627;48.838;2.402;2022-08-01T00:35:09;2.20;;;1.00;;
65853;SDS011;52627;48.838;2.402;2022-08-01T00:37:36;3.00;;;0.90;;
65853;SDS011;52627;48.838;2.402;2022-08-01T00:40:03;3.00;;;1.00;;
65853;SDS011;52627;48.838;2.402;2022-08-01T00:42:31;3.40;;;1.00;;
65853;SDS011;52627;48.838;2.402;2022-08-01T00:44:58;3.40;;;1.00;;
65853;SDS011;52627;48.838;2.402;2022-08-01T00:47:25;2.90;;;1.00;;
65853;SDS011;52627;48.838;2.402;2022-08-01T00:49:52;3.30;;;1.00;;
65853;SDS011;52627;48.838;2.402;2022-08-01T00:52:19;2.10;;;0.90;;
65853;SDS011;52627;48.838;2.402;2022-08-01T00:54:46;1.60;;;0.80;;
65853;SDS011;52627;48.838;2.402;2022-08-01T00:57:14;2.30;;;0.90;;
65853;SDS011;52627;48.838;2.402;2022-08-01T00:59:41;1.80;;;0.80;;
65853;SDS011;52627;48.838;2.402;2022-08-01T01:02:08;1.90;;;0.90;;
65853;SDS011;52627;48.838;2.402;2022-08-01T01:04:42;3.40;;;1.10;;
65853;SDS011;52627;48.838;2.402;2022-08-01T01:10:14;2.90;;;1.00;;
65853;SDS011;52627;48.838;2.402;2022-08-01T01:12:59;2.10;;;0.90;;
65853;SDS011;52627;48.838;2.402;2022-08-01T01:15:43;1.80;;;0.90;;
65853;SDS011;52627;48.838;2.402;2022-08-01T01:27:21;2.40;;;0.90;;
65853;SDS011;52627;48.838;2.402;2022-08-01T01:30:02;1.60;;;0.80;;
65853;SDS011;52627;48.838;2.402;2022-08-01T01:32:33;2.10;;;0.80;;
65853;SDS011;52627;48.838;2.402;2022-08-01T01:35:25;2.10;;;0.80;;
65853;SDS011;52627;48.838;2.402;2022-08-01T01:38:18;2.00;;;0.90;;
65853;SDS011;52627;48.838;2.402;2022-08-01T01:40:50;2.40;;;0.90;;
65853;SDS011;52627;48.838;2.402;2022-08-01T01:43:20;2.70;;;0.90;;
65853;SDS011;52627;48.838;2.402;2022-08-01T01:45:55;1.80;;;0.80;;
65853;SDS011;52627;48.838;2.402;2022-08-01T01:48:23;3.30;;;1.10;;
65853;SDS011;52627;48.838;2.402;2022-08-01T01:50:52;2.50;;;0.80;;
65853;SDS011;52627;48.838;2.402;2022-08-01T01:53:20;3.00;;;0.90;;
65853;SDS011;52627;48.838;2.402;2022-08-01T01:55:51;3.00;;;0.80;;
65853;SDS011;52627;48.838;2.402;2022-08-01T01:58:20;2.40;;;1.00;;
65853;SDS011;52627;48.838;2.402;2022-08-01T02:00:49;3.20;;;1.00;;
65853;SDS011;52627;48.838;2.402;2022-08-01T02:03:19;2.90;;;1.10;;
65853;SDS011;52627;48.838;2.402;2022-08-01T02:05:48;2.40;;;1.00;;
65853;SDS011;52627;48.838;2.402;2022-08-01T02:08:17;2.40;;;1.00;;
65853;SDS011;52627;48.838;2.402;2022-08-01T02:10:44;1.80;;;0.80;;
65853;SDS011;52627;48.838;2.402;2022-08-01T02:13:33;2.30;;;0.90;;
65853;SDS011;52627;48.838;2.402;2022-08-01T02:16:02;2.00;;;0.80;;
65853;SDS011;52627;48.838;2.402;2022-08-01T02:18:30;1.90;;;0.90;;
65853;SDS011;52627;48.838;2.402;2022-08-01T02:20:59;3.50;;;1.10;;
65853;SDS011;52627;48.838;2.402;2022-08-01T02:23:32;2.30;;;0.90;;
65853;SDS011;52627;48.838;2.402;2022-08-01T02:26:02;1.80;;;0.70;;
65853;SDS011;52627;48.838;2.402;2022-08-01T02:28:59;3.60;;;0.90;;
65853;SDS011;52627;48.838;2.402;2022-08-01T02:31:32;3.20;;;1.10;;
65853;SDS011;52627;48.838;2.402;2022-08-01T02:34:06;2.80;;;1.00;;
65853;SDS011;52627;48.838;2.402;2022-08-01T02:36:36;2.10;;;1.00;;
65853;SDS011;52627;48.838;2.402;2022-08-01T02:39:08;1.80;;;0.80;;
65853;SDS011;52627;48.838;2.402;2022-08-01T02:41:40;2.00;;;0.90;;
65853;SDS011;52627;48.838;2.402;2022-08-01T02:44:16;2.50;;;1.00;;
65853;SDS011;52627;48.838;2.402;2022-08-01T02:46:57;2.90;;;0.90;;
65853;SDS011;52627;48.838;2.402;2022-08-01T02:49:33;2.40;;;1.00;;
65853;SDS011;52627;48.838;2.402;2022-08-01T02:52:07;2.30;;;0.80;;
65853;SDS011;52627;48.838;2.402;2022-08-01T02:54:37;4.50;;;1.40;;
65853;SDS011;52627;48.838;2.402;2022-08-01T02:57:06;3.20;;;1.00;;
65853;SDS011;52627;48.838;2.402;2022-08-01T03:02:05;3.20;;;1.60;;
65853;SDS011;52627;48.838;2.402;2022-08-01T03:04:36;3.10;;;1.40;;
65853;SDS011;52627;48.838;2.402;2022-08-01T03:07:06;4.00;;;1.50;;
65853;SDS011;52627;48.838;2.402;2022-08-01T03:09:38;3.60;;;1.10;;
65853;SDS011;52627;48.838;2.402;2022-08-01T03:12:11;3.60;;;1.00;;
65853;SDS011;52627;48.838;2.402;2022-08-01T03:14:42;2.60;;;1.20;;
65853;SDS011;52627;48.838;2.402;2022-08-01T03:17:10;2.70;;;1.10;;
65853;SDS011;52627;48.838;2.402;2022-08-01T03:19:39;2.80;;;1.20;;
65853;SDS011;52627;48.838;2.402;2022-08-01T03:22:08;2.40;;;1.10;;
65853;SDS011;52627;48.838;2.402;2022-08-01T03:24:38;1.80;;;0.90;;
65853;SDS011;52627;48.838;2.402;2022-08-01T03:27:07;3.70;;;1.10;;
65853;SDS011;52627;48.838;2.402;2022-08-01T03:29:35;2.70;;;1.20;;
65853;SDS011;52627;48.838;2.402;2022-08-01T03:32:03;2.60;;;1.10;;
65853;SDS011;52627;48.838;2.402;2022-08-01T03:34:31;2.60;;;1.10;;
65853;SDS011;52627;48.838;2.402;2022-08-01T03:40:13;2.80;;;1.00;;
65853;SDS011;52627;48.838;2.402;2022-08-01T03:42:50;3.60;;;1.00;;
65853;SDS011;52627;48.838;2.402;2022-08-01T03:45:22;2.90;;;1.20;;
65853;SDS011;52627;48.838;2.402;2022-08-01T03:47:59;2.30;;;0.90;;
65853;SDS011;52627;48.838;2.402;2022-08-01T03:50:28;1.90;;;1.00;;
65853;SDS011;52627;48.838;2.402;2022-08-01T03:52:59;4.10;;;1.20;;
65853;SDS011;52627;48.838;2.402;2022-08-01T03:55:28;3.70;;;1.10;;
65853;SDS011;52627;48.838;2.402;2022-08-01T03:57:56;2.60;;;1.10;;
65853;SDS011;52627;48.838;2.402;2022-08-01T04:00:24;2.10;;;1.10;;
65853;SDS011;52627;48.838;2.402;2022-08-01T04:02:52;2.90;;;1.10;;
65853;SDS011;52627;48.838;2.402;2022-08-01T04:05:20;2.20;;;1.10;;
65853;SDS011;52627;48.838;2.402;2022-08-01T04:07:48;3.00;;;1.30;;
65853;SDS011;52627;48.838;2.402;2022-08-01T04:10:23;2.50;;;1.10;;
65853;SDS011;52627;48.838;2.402;2022-08-01T04:12:50;5.90;;;1.40;;
65853;SDS011;52627;48.838;2.402;2022-08-01T04:15:18;2.80;;;1.00;;
65853;SDS011;52627;48.838;2.402;2022-08-01T04:17:47;2.30;;;0.90;;
65853;SDS011;52627;48.838;2.402;2022-08-01T04:20:14;2.50;;;1.10;;
65853;SDS011;52627;48.838;2.402;2022-08-01T04:22:42;2.20;;;1.10;;
65853;SDS011;52627;48.838;2.402;2022-08-01T04:25:14;2.60;;;1.20;;
65853;SDS011;52627;48.838;2.402;2022-08-01T04:27:46;2.90;;;1.40;;
65853;SDS011;52627;48.838;2.402;2022-08-01T04:30:22;2.00;;;0.90;;
65853;SDS011;52627;48.838;2.402;2022-08-01T04:32:52;2.60;;;1.10;;
65853;SDS011;52627;48.838;2.402;2022-08-01T04:35:21;3.00;;;1.10;;
65853;SDS011;52627;48.838;2.402;2022-08-01T04:38:10;2.60;;;1.10;;
65853;SDS011;52627;48.838;2.402;2022-08-01T04:40:41;4.20;;;1.10;;
65853;SDS011;52627;48.838;2.402;2022-08-01T04:43:08;2.30;;;1.00;;
65853;SDS011;52627;48.838;2.402;2022-08-01T04:45:35;2.10;;;1.00;;
65853;SDS011;52627;48.838;2.402;2022-08-01T04:48:05;3.30;;;1.00;;
65853;SDS011;52627;48.838;2.402;2022-08-01T04:50:34;2.10;;;1.00;;
65853;SDS011;52627;48.838;2.402;2022-08-01T04:53:02;2.10;;;0.90;;
65853;SDS011;52627;48.838;2.402;2022-08-01T04:55:29;2.60;;;1.10;;
65853;SDS011;52627;48.838;2.402;2022-08-01T04:57:57;1.90;;;1.10;;
65853;SDS011;52627;48.838;2.402;2022-08-01T05:00:24;2.80;;;1.10;;
65853;SDS011;52627;48.838;2.402;2022-08-01T05:02:51;2.40;;;1.00;;
65853;SDS011;52627;48.838;2.402;2022-08-01T05:05:18;2.60;;;0.90;;
65853;SDS011;52627;48.838;2.402;2022-08-01T05:07:46;2.50;;;1.10;;
65853;SDS011;52627;48.838;2.402;2022-08-01T05:10:13;2.80;;;1.20;;
65853;SDS011;52627;48.838;2.402;2022-08-01T05:12:40;2.70;;;1.30;;
65853;SDS011;52627;48.838;2.402;2022-08-01T05:15:07;2.80;;;1.00;;
65853;SDS011;52627;48.838;2.402;2022-08-01T05:17:42;3.80;;;1.20;;
65853;SDS011;52627;48.838;2.402;2022-08-01T05:20:09;2.80;;;1.30;;
65853;SDS011;52627;48.838;2.402;2022-08-01T05:22:38;2.40;;;1.00;;
65853;SDS011;52627;48.838;2.402;2022-08-01T05:25:05;2.50;;;1.20;;
65853;SDS011;52627;48.838;2.402;2022-08-01T05:27:32;3.20;;;1.20;;
65853;SDS011;52627;48.838;2.402;2022-08-01T05:30:06;4.60;;;1.20;;
65853;SDS011;52627;48.838;2.402;2022-08-01T05:32:34;2.20;;;1.00;;
65853;SDS011;52627;48.838;2.402;2022-08-01T05:35:02;4.00;;;1.30;;
65853;SDS011;52627;48.838;2.402;2022-08-01T05:37:29;4.50;;;1.20;;
65853;SDS011;52627;48.838;2.402;2022-08-01T05:39:56;2.70;;;1.20;;
65853;SDS011;52627;48.838;2.402;2022-08-01T05:42:23;3.30;;;1.10;;
65853;SDS011;52627;48.838;2.402;2022-08-01T05:44:50;3.70;;;1.40;;
65853;SDS011;52627;48.838;2.402;2022-08-01T05:47:17;3.70;;;1.60;;
65853;SDS011;52627;48.838;2.402;2022-08-01T05:49:47;2.80;;;1.10;;
65853;SDS011;52627;48.838;2.402;2022-08-01T05:52:14;2.90;;;1.30;;
65853;SDS011;52627;48.838;2.402;2022-08-01T05:54:41;2.70;;;1.20;;
65853;SDS011;52627;48.838;2.402;2022-08-01T05:57:08;3.80;;;1.00;;
65853;SDS011;52627;48.838;2.402;2022-08-01T05:59:37;3.90;;;1.50;;
65853;SDS011;52627;48.838;2.402;2022-08-01T06:02:04;3.40;;;1.40;;
65853;SDS011;52627;48.838;2.402;2022-08-01T06:04:31;2.50;;;1.00;;
65853;SDS011;52627;48.838;2.402;2022-08-01T06:06:58;3.70;;;1.20;;
65853;SDS011;52627;48.838;2.402;2022-08-01T06:09:25;3.40;;;1.20;;
65853;SDS011;52627;48.838;2.402;2022-08-01T06:11:52;4.40;;;1.10;;
65853;SDS011;52627;48.838;2.402;2022-08-01T06:14:19;2.80;;;1.00;;
65853;SDS011;52627;48.838;2.402;2022-08-01T06:16:46;2.50;;;1.10;;
65853;SDS011;52627;48.838;2.402;2022-08-01T06:19:12;3.60;;;1.20;;
65853;SDS011;52627;48.838;2.402;2022-08-01T06:21:39;2.20;;;1.10;;
65853;SDS011;52627;48.838;2.402;2022-08-01T06:24:06;3.30;;;1.30;;
65853;SDS011;52627;48.838;2.402;2022-08-01T06:26:34;2.90;;;1.00;;
65853;SDS011;52627;48.838;2.402;2022-08-01T06:29:03;3.60;;;1.30;;
65853;SDS011;52627;48.838;2.402;2022-08-01T06:31:30;3.50;;;1.60;;
65853;SDS011;52627;48.838;2.402;2022-08-01T06:34:00;2.80;;;1.30;;
65853;SDS011;52627;48.838;2.402;2022-08-01T06:36:27;2.40;;;1.10;;
65853;SDS011;52627;48.838;2.402;2022-08-01T06:38:54;2.50;;;1.30;;
65853;SDS011;52627;48.838;2.402;2022-08-01T06:41:21;3.30;;;1.20;;
65853;SDS011;52627;48.838;2.402;2022-08-01T06:43:47;4.00;;;1.40;;
65853;SDS011;52627;48.838;2.402;2022-08-01T06:46:14;6.10;;;1.40;;
65853;SDS011;52627;48.838;2.402;2022-08-01T06:48:41;2.20;;;1.10;;
65853;SDS011;52627;48.838;2.402;2022-08-01T06:51:09;3.20;;;1.00;;
65853;SDS011;52627;48.838;2.402;2022-08-01T06:53:36;3.80;;;1.30;;
65853;SDS011;52627;48.838;2.402;2022-08-01T06:56:05;4.10;;;1.30;;
65853;SDS011;52627;48.838;2.402;2022-08-01T06:58:33;3.80;;;1.30;;
65853;SDS011;52627;48.838;2.402;2022-08-01T07:01:02;3.20;;;1.50;;
65853;SDS011;52627;48.838;2.402;2022-08-01T07:03:34;4.50;;;1.70;;
65853;SDS011;52627;48.838;2.402;2022-08-01T07:06:22;3.50;;;1.50;;
65853;SDS011;52627;48.838;2.402;2022-08-01T07:08:51;4.50;;;1.50;;
65853;SDS011;52627;48.838;2.402;2022-08-01T07:11:19;3.70;;;1.40;;
65853;SDS011;52627;48.838;2.402;2022-08-01T07:13:47;4.00;;;1.40;;
65853;SDS011;52627;48.838;2.402;2022-08-01T07:16:15;2.70;;;1.30;;
65853;SDS011;52627;48.838;2.402;2022-08-01T07:18:42;4.20;;;1.90;;
65853;SDS011;52627;48.838;2.402;2022-08-01T07:21:10;3.00;;;1.40;;
65853;SDS011;52627;48.838;2.402;2022-08-01T07:23:57;4.20;;;1.30;;
65853;SDS011;52627;48.838;2.402;2022-08-01T07:26:25;4.00;;;1.50;;
65853;SDS011;52627;48.838;2.402;2022-08-01T07:28:53;5.90;;;1.30;;
65853;SDS011;52627;48.838;2.402;2022-08-01T07:31:21;3.20;;;1.30;;
65853;SDS011;52627;48.838;2.402;2022-08-01T07:33:50;2.70;;;1.20;;
65853;SDS011;52627;48.838;2.402;2022-08-01T07:36:17;4.10;;;1.30;;
65853;SDS011;52627;48.838;2.402;2022-08-01T07:38:46;4.60;;;1.20;;
65853;SDS011;52627;48.838;2.402;2022-08-01T07:41:13;3.00;;;1.20;;
65853;SDS011;52627;48.838;2.402;2022-08-01T07:43:40;3.30;;;1.10;;
65853;SDS011;52627;48.838;2.402;2022-08-01T07:46:19;2.30;;;1.10;;
65853;SDS011;52627;48.838;2.402;2022-08-01T07:48:46;6.40;;;1.30;;
65853;SDS011;52627;48.838;2.402;2022-08-01T07:51:12;4.90;;;1.30;;
65853;SDS011;52627;48.838;2.402;2022-08-01T07:53:39;2.40;;;1.00;;
65853;SDS011;52627;48.838;2.402;2022-08-01T07:56:06;2.90;;;1.10;;
65853;SDS011;52627;48.838;2.402;2022-08-01T07:58:33;4.50;;;1.50;;
65853;SDS011;52627;48.838;2.402;2022-08-01T08:01:00;4.80;;;1.70;;
65853;SDS011;52627;48.838;2.402;2022-08-01T08:03:27;3.40;;;1.60;;
65853;SDS011;52627;48.838;2.402;2022-08-01T08:05:54;4.00;;;2.00;;
65853;SDS011;52627;48.838;2.402;2022-08-01T08:08:26;6.70;;;1.80;;
65853;SDS011;52627;48.838;2.402;2022-08-01T08:10:53;5.40;;;1.30;;
65853;SDS011;52627;48.838;2.402;2022-08-01T08:13:20;3.30;;;1.50;;
65853;SDS011;52627;48.838;2.402;2022-08-01T08:15:48;4.60;;;1.30;;
65853;SDS011;52627;48.838;2.402;2022-08-01T08:18:15;5.40;;;1.70;;
65853;SDS011;52627;48.838;2.402;2022-08-01T08:20:43;3.70;;;1.60;;
65853;SDS011;52627;48.838;2.402;2022-08-01T08:23:10;3.40;;;1.60;;
65853;SDS011;52627;48.838;2.402;2022-08-01T08:26:10;3.30;;;1.60;;
65853;SDS011;52627;48.838;2.402;2022-08-01T08:28:38;3.20;;;1.80;;
65853;SDS011;52627;48.838;2.402;2022-08-01T08:31:07;4.00;;;1.80;;
65853;SDS011;52627;48.838;2.402;2022-08-01T08:33:54;3.80;;;1.90;;
65853;SDS011;52627;48.838;2.402;2022-08-01T08:36:21;4.00;;;1.90;;
65853;SDS011;52627;48.838;2.402;2022-08-01T08:39:00;4.60;;;1.80;;
65853;SDS011;52627;48.838;2.402;2022-08-01T08:41:33;4.00;;;1.60;;
65853;SDS011;52627;48.838;2.402;2022-08-01T08:44:05;2.80;;;1.60;;
65853;SDS011;52627;48.838;2.402;2022-08-01T08:46:47;4.40;;;2.00;;
65853;SDS011;52627;48.838;2.402;2022-08-01T08:49:18;4.10;;;1.90;;
65853;SDS011;52627;48.838;2.402;2022-08-01T08:51:49;4.50;;;2.40;;
65853;SDS011;52627;48.838;2.402;2022-08-01T08:54:19;3.80;;;1.70;;
65853;SDS011;52627;48.838;2.402;2022-08-01T08:56:58;4.00;;;2.00;;
65853;SDS011;52627;48.838;2.402;2022-08-01T08:59:27;4.70;;;1.70;;
65853;SDS011;52627;48.838;2.402;2022-08-01T09:01:54;4.70;;;2.10;;
65853;SDS011;52627;48.838;2.402;2022-08-01T09:04:22;4.40;;;1.80;;
65853;SDS011;52627;48.838;2.402;2022-08-01T09:06:53;4.30;;;1.70;;
65853;SDS011;52627;48.838;2.402;2022-08-01T09:09:22;4.00;;;1.60;;
65853;SDS011;52627;48.838;2.402;2022-08-01T09:11:50;3.10;;;1.70;;
65853;SDS011;52627;48.838;2.402;2022-08-01T09:14:24;4.70;;;2.10;;
65853;SDS011;52627;48.838;2.402;2022-08-01T09:17:04;3.00;;;1.70;;
65853;SDS011;52627;48.838;2.402;2022-08-01T09:19:38;4.20;;;2.10;;
65853;SDS011;52627;48.838;2.402;2022-08-01T09:24:38;3.80;;;1.20;;
65853;SDS011;52627;48.838;2.402;2022-08-01T09:27:21;2.10;;;1.10;;
65853;SDS011;52627;48.838;2.402;2022-08-01T09:29:53;2.20;;;1.20;;
65853;SDS011;52627;48.838;2.402;2022-08-01T09:32:29;1.90;;;1.00;;
65853;SDS011;52627;48.838;2.402;2022-08-01T09:35:37;2.70;;;1.60;;
65853;SDS011;52627;48.838;2.402;2022-08-01T09:38:17;3.50;;;1.60;;
65853;SDS011;52627;48.838;2.402;2022-08-01T09:43:27;4.50;;;2.00;;
65853;SDS011;52627;48.838;2.402;2022-08-01T09:45:58;3.80;;;1.90;;
65853;SDS011;52627;48.838;2.402;2022-08-01T09:48:26;4.20;;;2.40;;
65853;SDS011;52627;48.838;2.402;2022-08-01T09:50:57;5.20;;;2.50;;
65853;SDS011;52627;48.838;2.402;2022-08-01T09:53:49;4.10;;;2.00;;
65853;SDS011;52627;48.838;2.402;2022-08-01T09:56:20;4.30;;;1.90;;
65853;SDS011;52627;48.838;2.402;2022-08-01T09:58:56;5.60;;;2.10;;
65853;SDS011;52627;48.838;2.402;2022-08-01T10:01:46;5.40;;;2.10;;
65853;SDS011;52627;48.838;2.402;2022-08-01T10:04:20;5.30;;;1.90;;
65853;SDS011;52627;48.838;2.402;2022-08-01T10:06:50;6.30;;;2.30;;
65853;SDS011;52627;48.838;2.402;2022-08-01T10:09:31;3.70;;;1.80;;
65853;SDS011;52627;48.838;2.402;2022-08-01T10:12:07;4.70;;;2.10;;
65853;SDS011;52627;48.838;2.402;2022-08-01T10:14:43;6.20;;;2.20;;
65853;SDS011;52627;48.838;2.402;2022-08-01T10:19:46;4.80;;;1.80;;
65853;SDS011;52627;48.838;2.402;2022-08-01T10:22:18;3.50;;;2.00;;
65853;SDS011;52627;48.838;2.402;2022-08-01T10:24:47;3.60;;;1.90;;
65853;SDS011;52627;48.838;2.402;2022-08-01T10:27:16;5.10;;;2.20;;
65853;SDS011;52627;48.838;2.402;2022-08-01T10:30:03;3.60;;;1.90;;
65853;SDS011;52627;48.838;2.402;2022-08-01T10:32:48;4.30;;;2.00;;
65853;SDS011;52627;48.838;2.402;2022-08-01T10:35:18;4.80;;;2.50;;
65853;SDS011;52627;48.838;2.402;2022-08-01T10:38:06;4.80;;;1.90;;
65853;SDS011;52627;48.838;2.402;2022-08-01T10:40:41;4.20;;;2.40;;
65853;SDS011;52627;48.838;2.402;2022-08-01T10:43:10;7.00;;;2.40;;
65853;SDS011;52627;48.838;2.402;2022-08-01T10:45:39;5.80;;;2.20;;
65853;SDS011;52627;48.838;2.402;2022-08-01T10:48:22;4.00;;;2.20;;
65853;SDS011;52627;48.838;2.402;2022-08-01T10:50:59;4.20;;;2.00;;
65853;SDS011;52627;48.838;2.402;2022-08-01T10:53:29;4.10;;;2.40;;
65853;SDS011;52627;48.838;2.402;2022-08-01T10:56:08;5.90;;;2.30;;
65853;SDS011;52627;48.838;2.402;2022-08-01T10:58:41;6.00;;;2.80;;
65853;SDS011;52627;48.838;2.402;2022-08-01T11:01:19;5.30;;;2.10;;
65853;SDS011;52627;48.838;2.402;2022-08-01T11:09:24;5.70;;;2.50;;
65853;SDS011;52627;48.838;2.402;2022-08-01T11:12:10;6.00;;;2.50;;
65853;SDS011;52627;48.838;2.402;2022-08-01T11:17:32;4.40;;;2.40;;
65853;SDS011;52627;48.838;2.402;2022-08-01T11:20:19;4.00;;;2.30;;
65853;SDS011;52627;48.838;2.402;2022-08-01T11:28:32;5.60;;;2.60;;
65853;SDS011;52627;48.838;2.402;2022-08-01T11:41:28;4.70;;;2.70;;
65853;SDS011;52627;48.838;2.402;2022-08-01T11:44:06;6.50;;;2.80;;
65853;SDS011;52627;48.838;2.402;2022-08-01T11:49:23;3.90;;;2.60;;
65853;SDS011;52627;48.838;2.402;2022-08-01T11:52:03;4.70;;;2.70;;
65853;SDS011;52627;48.838;2.402;2022-08-01T11:54:34;4.60;;;2.80;;
65853;SDS011;52627;48.838;2.402;2022-08-01T11:57:29;7.70;;;3.10;;
65853;SDS011;52627;48.838;2.402;2022-08-01T12:00:10;5.90;;;3.50;;
65853;SDS011;52627;48.838;2.402;2022-08-01T12:02:53;6.60;;;3.00;;
65853;SDS011;52627;48.838;2.402;2022-08-01T12:05:26;5.10;;;3.10;;
65853;SDS011;52627;48.838;2.402;2022-08-01T12:07:57;5.40;;;3.30;;
65853;SDS011;52627;48.838;2.402;2022-08-01T12:10:28;7.40;;;3.60;;
65853;SDS011;52627;48.838;2.402;2022-08-01T12:13:13;5.60;;;2.60;;
65853;SDS011;52627;48.838;2.402;2022-08-01T12:15:40;5.20;;;2.90;;
65853;SDS011;52627;48.838;2.402;2022-08-01T12:18:07;6.00;;;2.60;;
65853;SDS011;52627;48.838;2.402;2022-08-01T12:20:37;4.40;;;2.80;;
65853;SDS011;52627;48.838;2.402;2022-08-01T12:23:20;5.70;;;3.00;;
65853;SDS011;52627;48.838;2.402;2022-08-01T12:25:51;5.00;;;3.00;;
65853;SDS011;52627;48.838;2.402;2022-08-01T12:28:18;5.10;;;3.20;;
65853;SDS011;52627;48.838;2.402;2022-08-01T12:30:47;4.40;;;2.90;;
65853;SDS011;52627;48.838;2.402;2022-08-01T12:33:17;7.80;;;3.10;;
65853;SDS011;52627;48.838;2.402;2022-08-01T12:35:45;3.60;;;2.50;;
65853;SDS011;52627;48.838;2.402;2022-08-01T12:38:15;3.60;;;2.30;;
65853;SDS011;52627;48.838;2.402;2022-08-01T12:40:45;12.20;;;3.00;;
65853;SDS011;52627;48.838;2.402;2022-08-01T12:43:22;5.00;;;2.50;;
65853;SDS011;52627;48.838;2.402;2022-08-01T12:45:58;3.60;;;2.20;;
65853;SDS011;52627;48.838;2.402;2022-08-01T12:48:26;3.30;;;2.20;;
65853;SDS011;52627;48.838;2.402;2022-08-01T12:50:55;5.00;;;2.70;;
65853;SDS011;52627;48.838;2.402;2022-08-01T12:53:24;4.90;;;2.50;;
65853;SDS011;52627;48.838;2.402;2022-08-01T12:56:06;4.60;;;2.70;;
65853;SDS011;52627;48.838;2.402;2022-08-01T12:58:33;4.60;;;2.80;;
65853;SDS011;52627;48.838;2.402;2022-08-01T13:01:08;4.70;;;3.30;;
65853;SDS011;52627;48.838;2.402;2022-08-01T13:03:37;4.40;;;2.90;;
65853;SDS011;52627;48.838;2.402;2022-08-01T13:06:12;5.20;;;2.90;;
65853;SDS011;52627;48.838;2.402;2022-08-01T13:08:40;5.10;;;3.00;;
65853;SDS011;52627;48.838;2.402;2022-08-01T13:11:10;4.10;;;2.70;;
65853;SDS011;52627;48.838;2.402;2022-08-01T13:13:43;4.30;;;2.90;;
65853;SDS011;52627;48.838;2.402;2022-08-01T13:16:14;5.30;;;3.00;;
65853;SDS011;52627;48.838;2.402;2022-08-01T13:19:02;6.70;;;3.20;;
65853;SDS011;52627;48.838;2.402;2022-08-01T13:21:30;5.00;;;2.90;;
65853;SDS011;52627;48.838;2.402;2022-08-01T13:24:31;4.40;;;2.90;;
65853;SDS011;52627;48.838;2.402;2022-08-01T13:27:00;6.00;;;3.20;;
65853;SDS011;52627;48.838;2.402;2022-08-01T13:35:06;4.20;;;2.60;;
65853;SDS011;52627;48.838;2.402;2022-08-01T13:37:41;5.80;;;2.50;;
65853;SDS011;52627;48.838;2.402;2022-08-01T13:40:10;3.80;;;2.50;;
65853;SDS011;52627;48.838;2.402;2022-08-01T13:42:38;4.30;;;2.50;;
65853;SDS011;52627;48.838;2.402;2022-08-01T13:45:05;9.30;;;3.00;;
65853;SDS011;52627;48.838;2.402;2022-08-01T13:47:42;4.70;;;2.70;;
65853;SDS011;52627;48.838;2.402;2022-08-01T13:50:29;4.50;;;2.70;;
65853;SDS011;52627;48.838;2.402;2022-08-01T13:52:57;5.20;;;2.80;;
65853;SDS011;52627;48.838;2.402;2022-08-01T13:55:23;4.10;;;2.70;;
65853;SDS011;52627;48.838;2.402;2022-08-01T13:57:50;4.00;;;2.90;;
65853;SDS011;52627;48.838;2.402;2022-08-01T14:00:17;3.80;;;2.50;;
65853;SDS011;52627;48.838;2.402;2022-08-01T14:02:46;4.20;;;2.10;;
65853;SDS011;52627;48.838;2.402;2022-08-01T14:05:12;3.70;;;2.40;;
65853;SDS011;52627;48.838;2.402;2022-08-01T14:07:39;4.20;;;2.70;;
65853;SDS011;52627;48.838;2.402;2022-08-01T14:10:07;4.70;;;2.30;;
65853;SDS011;52627;48.838;2.402;2022-08-01T14:12:48;4.50;;;2.40;;
65853;SDS011;52627;48.838;2.402;2022-08-01T14:15:16;3.60;;;2.10;;
65853;SDS011;52627;48.838;2.402;2022-08-01T14:18:03;5.80;;;2.50;;
65853;SDS011;52627;48.838;2.402;2022-08-01T14:20:33;4.80;;;2.60;;
65853;SDS011;52627;48.838;2.402;2022-08-01T14:23:00;5.10;;;2.50;;
65853;SDS011;52627;48.838;2.402;2022-08-01T14:25:27;5.40;;;2.60;;
65853;SDS011;52627;48.838;2.402;2022-08-01T14:28:14;3.60;;;2.30;;
65853;SDS011;52627;48.838;2.402;2022-08-01T14:30:41;3.80;;;2.40;;
65853;SDS011;52627;48.838;2.402;2022-08-01T14:33:12;4.20;;;2.40;;
65853;SDS011;52627;48.838;2.402;2022-08-01T14:35:40;4.10;;;2.60;;
65853;SDS011;52627;48.838;2.402;2022-08-01T14:38:27;4.40;;;2.70;;
65853;SDS011;52627;48.838;2.402;2022-08-01T14:41:00;5.60;;;2.30;;
65853;SDS011;52627;48.838;2.402;2022-08-01T14:43:29;3.60;;;2.20;;
65853;SDS011;52627;48.838;2.402;2022-08-01T14:46:00;4.70;;;2.10;;
65853;SDS011;52627;48.838;2.402;2022-08-01T14:48:29;5.30;;;2.50;;
65853;SDS011;52627;48.838;2.402;2022-08-01T14:50:57;7.10;;;2.10;;
65853;SDS011;52627;48.838;2.402;2022-08-01T14:53:25;4.40;;;2.50;;
65853;SDS011;52627;48.838;2.402;2022-08-01T14:55:52;4.10;;;2.00;;
65853;SDS011;52627;48.838;2.402;2022-08-01T14:58:19;3.90;;;2.20;;
65853;SDS011;52627;48.838;2.402;2022-08-01T15:00:46;4.80;;;2.20;;
65853;SDS011;52627;48.838;2.402;2022-08-01T15:03:13;4.30;;;2.10;;
65853;SDS011;52627;48.838;2.402;2022-08-01T15:05:40;3.90;;;2.10;;
65853;SDS011;52627;48.838;2.402;2022-08-01T15:08:07;3.50;;;2.00;;
65853;SDS011;52627;48.838;2.402;2022-08-01T15:10:36;4.30;;;2.10;;
65853;SDS011;52627;48.838;2.402;2022-08-01T15:13:03;4.00;;;2.30;;
65853;SDS011;52627;48.838;2.402;2022-08-01T15:15:29;4.10;;;2.10;;
65853;SDS011;52627;48.838;2.402;2022-08-01T15:17:56;5.50;;;2.20;;
65853;SDS011;52627;48.838;2.402;2022-08-01T15:20:24;6.10;;;2.10;;
65853;SDS011;52627;48.838;2.402;2022-08-01T15:22:51;5.00;;;2.00;;
65853;SDS011;52627;48.838;2.402;2022-08-01T15:25:19;3.80;;;2.10;;
65853;SDS011;52627;48.838;2.402;2022-08-01T15:27:46;3.50;;;2.00;;
65853;SDS011;52627;48.838;2.402;2022-08-01T15:30:13;3.30;;;2.00;;
65853;SDS011;52627;48.838;2.402;2022-08-01T15:32:40;3.60;;;2.00;;
65853;SDS011;52627;48.838;2.402;2022-08-01T15:35:07;4.00;;;2.40;;
65853;SDS011;52627;48.838;2.402;2022-08-01T15:37:36;3.50;;;2.10;;
65853;SDS011;52627;48.838;2.402;2022-08-01T15:40:10;4.30;;;2.30;;
65853;SDS011;52627;48.838;2.402;2022-08-01T15:42:38;4.60;;;2.50;;
65853;SDS011;52627;48.838;2.402;2022-08-01T15:45:06;5.30;;;2.10;;
65853;SDS011;52627;48.838;2.402;2022-08-01T15:47:42;4.50;;;2.30;;
65853;SDS011;52627;48.838;2.402;2022-08-01T15:50:09;4.30;;;2.40;;
65853;SDS011;52627;48.838;2.402;2022-08-01T15:52:36;3.70;;;2.20;;
65853;SDS011;52627;48.838;2.402;2022-08-01T15:55:03;4.50;;;2.20;;
65853;SDS011;52627;48.838;2.402;2022-08-01T15:57:31;4.10;;;2.30;;
65853;SDS011;52627;48.838;2.402;2022-08-01T16:00:00;4.00;;;2.10;;
65853;SDS011;52627;48.838;2.402;2022-08-01T16:02:26;4.40;;;2.50;;
65853;SDS011;52627;48.838;2.402;2022-08-01T16:04:53;4.60;;;2.30;;
65853;SDS011;52627;48.838;2.402;2022-08-01T16:07:20;4.50;;;2.30;;
65853;SDS011;52627;48.838;2.402;2022-08-01T16:09:47;3.50;;;2.60;;